sensor_id;sensor_type;location;lat;lon;timestamp;P1;durP1;ratioP1;P2;durP2;ratioP2
23561;SDS011;11959;49.418;8.728;2022-10-04T00:01:14;26.80;;;6.18;;
23561;SDS011;11959;49.418;8.728;2022-10-04T00:03:46;8.45;;;5.10;;
23561;SDS011;11959;49.418;8.728;2022-10-04T00:06:20;7.35;;;5.22;;
23561;SDS011;11959;49.418;8.728;2022-10-04T00:08:56;9.45;;;5.07;;
23561;SDS011;11959;49.418;8.728;2022-10-04T00:11:30;8.02;;;4.75;;
23561;SDS011;11959;49.418;8.728;2022-10-04T00:14:18;8.23;;;4.85;;
23561;SDS011;11959;49.418;8.728;2022-10-04T00:16:45;7.68;;;5.05;;
23561;SDS011;11959;49.418;8.728;2022-10-04T00:24:24;6.38;;;4.20;;
23561;SDS011;11959;49.418;8.728;2022-10-04T00:29:40;7.22;;;4.20;;
23561;SDS011;11959;49.418;8.728;2022-10-04T00:36:59;7.47;;;4.70;;
23561;SDS011;11959;49.418;8.728;2022-10-04T00:39:36;10.00;;;4.63;;
23561;SDS011;11959;49.418;8.728;2022-10-04T00:44:44;7.53;;;4.32;;
23561;SDS011;11959;49.418;8.728;2022-10-04T00:49:52;10.02;;;4.35;;
23561;SDS011;11959;49.418;8.728;2022-10-04T00:52:27;8.47;;;4.53;;
23561;SDS011;11959;49.418;8.728;2022-10-04T00:57:28;7.05;;;4.40;;
23561;SDS011;11959;49.418;8.728;2022-10-04T00:59:59;6.00;;;4.22;;
23561;SDS011;11959;49.418;8.728;2022-10-04T01:02:34;9.40;;;4.45;;
23561;SDS011;11959;49.418;8.728;2022-10-04T01:05:16;6.65;;;4.40;;
23561;SDS011;11959;49.418;8.728;2022-10-04T01:07:52;7.72;;;4.43;;
23561;SDS011;11959;49.418;8.728;2022-10-04T01:10:31;11.23;;;4.72;;
23561;SDS011;11959;49.418;8.728;2022-10-04T01:13:20;8.02;;;4.47;;
23561;SDS011;11959;49.418;8.728;2022-10-04T01:15:52;7.53;;;4.15;;
23561;SDS011;11959;49.418;8.728;2022-10-04T01:18:31;19.77;;;5.30;;
23561;SDS011;11959;49.418;8.728;2022-10-04T01:23:50;6.80;;;4.50;;
23561;SDS011;11959;49.418;8.728;2022-10-04T01:26:38;6.53;;;4.25;;
23561;SDS011;11959;49.418;8.728;2022-10-04T01:29:05;8.20;;;4.40;;
23561;SDS011;11959;49.418;8.728;2022-10-04T01:31:51;7.65;;;4.63;;
23561;SDS011;11959;49.418;8.728;2022-10-04T01:34:19;7.10;;;4.22;;
23561;SDS011;11959;49.418;8.728;2022-10-04T01:36:47;10.15;;;4.55;;
23561;SDS011;11959;49.418;8.728;2022-10-04T01:39:15;12.57;;;4.63;;
23561;SDS011;11959;49.418;8.728;2022-10-04T01:44:36;7.38;;;4.30;;
23561;SDS011;11959;49.418;8.728;2022-10-04T01:47:15;5.15;;;3.92;;
23561;SDS011;11959;49.418;8.728;2022-10-04T01:49:45;4.38;;;3.30;;
23561;SDS011;11959;49.418;8.728;2022-10-04T01:55:00;5.28;;;4.10;;
23561;SDS011;11959;49.418;8.728;2022-10-04T01:57:36;5.85;;;3.70;;
23561;SDS011;11959;49.418;8.728;2022-10-04T02:00:07;5.28;;;3.78;;
23561;SDS011;11959;49.418;8.728;2022-10-04T02:02:51;5.32;;;3.65;;
23561;SDS011;11959;49.418;8.728;2022-10-04T02:05:41;6.47;;;3.67;;
23561;SDS011;11959;49.418;8.728;2022-10-04T02:08:13;5.70;;;3.92;;
23561;SDS011;11959;49.418;8.728;2022-10-04T02:10:40;6.05;;;3.42;;
23561;SDS011;11959;49.418;8.728;2022-10-04T02:13:08;5.90;;;3.80;;
23561;SDS011;11959;49.418;8.728;2022-10-04T02:15:38;9.10;;;3.58;;
23561;SDS011;11959;49.418;8.728;2022-10-04T02:18:25;11.27;;;4.13;;
23561;SDS011;11959;49.418;8.728;2022-10-04T02:20:51;6.68;;;3.72;;
23561;SDS011;11959;49.418;8.728;2022-10-04T02:23:18;6.00;;;3.50;;
23561;SDS011;11959;49.418;8.728;2022-10-04T02:25:45;6.32;;;4.07;;
23561;SDS011;11959;49.418;8.728;2022-10-04T02:28:11;6.32;;;3.80;;
23561;SDS011;11959;49.418;8.728;2022-10-04T02:30:40;6.45;;;3.92;;
23561;SDS011;11959;49.418;8.728;2022-10-04T02:33:08;4.50;;;3.42;;
23561;SDS011;11959;49.418;8.728;2022-10-04T02:35:36;7.32;;;3.97;;
23561;SDS011;11959;49.418;8.728;2022-10-04T02:40:37;17.50;;;5.00;;
23561;SDS011;11959;49.418;8.728;2022-10-04T02:43:10;8.13;;;3.47;;
23561;SDS011;11959;49.418;8.728;2022-10-04T02:45:42;8.75;;;3.70;;
23561;SDS011;11959;49.418;8.728;2022-10-04T02:51:00;11.60;;;4.00;;
23561;SDS011;11959;49.418;8.728;2022-10-04T02:53:44;5.72;;;3.85;;
23561;SDS011;11959;49.418;8.728;2022-10-04T02:56:29;6.45;;;3.53;;
23561;SDS011;11959;49.418;8.728;2022-10-04T02:59:04;8.20;;;4.05;;
23561;SDS011;11959;49.418;8.728;2022-10-04T03:04:24;4.75;;;3.55;;
23561;SDS011;11959;49.418;8.728;2022-10-04T03:06:52;5.70;;;3.45;;
23561;SDS011;11959;49.418;8.728;2022-10-04T03:09:19;4.40;;;3.65;;
23561;SDS011;11959;49.418;8.728;2022-10-04T03:11:46;6.40;;;3.50;;
23561;SDS011;11959;49.418;8.728;2022-10-04T03:14:18;5.97;;;3.72;;
23561;SDS011;11959;49.418;8.728;2022-10-04T03:16:49;6.70;;;3.53;;
23561;SDS011;11959;49.418;8.728;2022-10-04T03:19:18;5.82;;;3.42;;
23561;SDS011;11959;49.418;8.728;2022-10-04T03:21:46;7.05;;;3.67;;
23561;SDS011;11959;49.418;8.728;2022-10-04T03:24:24;5.90;;;3.30;;
23561;SDS011;11959;49.418;8.728;2022-10-04T03:26:54;4.75;;;3.05;;
23561;SDS011;11959;49.418;8.728;2022-10-04T03:29:23;4.93;;;3.00;;
23561;SDS011;11959;49.418;8.728;2022-10-04T03:31:52;5.75;;;3.55;;
23561;SDS011;11959;49.418;8.728;2022-10-04T03:34:23;7.38;;;4.10;;
23561;SDS011;11959;49.418;8.728;2022-10-04T03:36:58;6.68;;;3.40;;
23561;SDS011;11959;49.418;8.728;2022-10-04T03:39:39;6.80;;;3.67;;
23561;SDS011;11959;49.418;8.728;2022-10-04T03:42:13;7.50;;;3.67;;
23561;SDS011;11959;49.418;8.728;2022-10-04T03:44:45;13.20;;;4.25;;
23561;SDS011;11959;49.418;8.728;2022-10-04T03:47:18;4.82;;;3.38;;
23561;SDS011;11959;49.418;8.728;2022-10-04T03:49:53;4.85;;;3.55;;
23561;SDS011;11959;49.418;8.728;2022-10-04T03:52:26;8.77;;;3.50;;
23561;SDS011;11959;49.418;8.728;2022-10-04T03:54:56;4.88;;;3.10;;
23561;SDS011;11959;49.418;8.728;2022-10-04T03:57:25;6.60;;;3.50;;
23561;SDS011;11959;49.418;8.728;2022-10-04T03:59:52;4.38;;;3.53;;
23561;SDS011;11959;49.418;8.728;2022-10-04T04:05:04;4.50;;;2.90;;
23561;SDS011;11959;49.418;8.728;2022-10-04T04:10:17;4.80;;;3.17;;
23561;SDS011;11959;49.418;8.728;2022-10-04T04:12:55;6.15;;;3.58;;
23561;SDS011;11959;49.418;8.728;2022-10-04T04:15:27;4.07;;;2.80;;
23561;SDS011;11959;49.418;8.728;2022-10-04T04:17:55;3.20;;;2.67;;
23561;SDS011;11959;49.418;8.728;2022-10-04T04:25:51;7.60;;;3.25;;
23561;SDS011;11959;49.418;8.728;2022-10-04T04:28:24;4.03;;;2.83;;
23561;SDS011;11959;49.418;8.728;2022-10-04T04:31:04;6.53;;;2.95;;
23561;SDS011;11959;49.418;8.728;2022-10-04T04:33:44;3.80;;;3.08;;
23561;SDS011;11959;49.418;8.728;2022-10-04T04:36:23;4.35;;;2.72;;
23561;SDS011;11959;49.418;8.728;2022-10-04T04:38:50;4.10;;;3.03;;
23561;SDS011;11959;49.418;8.728;2022-10-04T04:41:34;5.68;;;2.80;;
23561;SDS011;11959;49.418;8.728;2022-10-04T04:44:00;4.28;;;3.35;;
23561;SDS011;11959;49.418;8.728;2022-10-04T04:46:27;5.30;;;3.35;;
23561;SDS011;11959;49.418;8.728;2022-10-04T04:48:56;5.22;;;4.15;;
23561;SDS011;11959;49.418;8.728;2022-10-04T04:51:26;6.28;;;3.85;;
23561;SDS011;11959;49.418;8.728;2022-10-04T04:53:53;6.18;;;3.58;;
23561;SDS011;11959;49.418;8.728;2022-10-04T04:56:24;5.35;;;3.85;;
23561;SDS011;11959;49.418;8.728;2022-10-04T04:58:52;4.28;;;3.88;;
23561;SDS011;11959;49.418;8.728;2022-10-04T05:01:25;4.47;;;3.80;;
23561;SDS011;11959;49.418;8.728;2022-10-04T05:06:34;8.35;;;3.58;;
23561;SDS011;11959;49.418;8.728;2022-10-04T05:09:02;5.20;;;3.33;;
23561;SDS011;11959;49.418;8.728;2022-10-04T05:11:30;7.90;;;3.50;;
23561;SDS011;11959;49.418;8.728;2022-10-04T05:13:59;6.78;;;3.83;;
23561;SDS011;11959;49.418;8.728;2022-10-04T05:21:44;5.00;;;3.03;;
23561;SDS011;11959;49.418;8.728;2022-10-04T05:26:38;3.75;;;2.75;;
23561;SDS011;11959;49.418;8.728;2022-10-04T05:29:07;3.83;;;2.72;;
23561;SDS011;11959;49.418;8.728;2022-10-04T05:34:17;3.22;;;2.60;;
23561;SDS011;11959;49.418;8.728;2022-10-04T05:36:53;5.20;;;3.13;;
23561;SDS011;11959;49.418;8.728;2022-10-04T05:42:23;5.38;;;3.25;;
23561;SDS011;11959;49.418;8.728;2022-10-04T05:45:13;5.60;;;2.95;;
23561;SDS011;11959;49.418;8.728;2022-10-04T05:47:49;4.32;;;3.20;;
23561;SDS011;11959;49.418;8.728;2022-10-04T05:50:25;4.50;;;3.08;;
23561;SDS011;11959;49.418;8.728;2022-10-04T05:53:07;5.03;;;2.90;;
23561;SDS011;11959;49.418;8.728;2022-10-04T06:01:58;5.75;;;3.78;;
23561;SDS011;11959;49.418;8.728;2022-10-04T06:06:52;7.60;;;3.67;;
23561;SDS011;11959;49.418;8.728;2022-10-04T06:23:12;4.90;;;3.25;;
23561;SDS011;11959;49.418;8.728;2022-10-04T06:25:43;7.45;;;3.53;;
23561;SDS011;11959;49.418;8.728;2022-10-04T06:28:15;5.47;;;3.67;;
23561;SDS011;11959;49.418;8.728;2022-10-04T06:31:03;5.57;;;3.42;;
23561;SDS011;11959;49.418;8.728;2022-10-04T06:36:48;7.78;;;3.60;;
23561;SDS011;11959;49.418;8.728;2022-10-04T06:39:52;5.22;;;3.38;;
23561;SDS011;11959;49.418;8.728;2022-10-04T06:42:26;5.80;;;3.20;;
23561;SDS011;11959;49.418;8.728;2022-10-04T07:00:21;5.57;;;3.28;;
23561;SDS011;11959;49.418;8.728;2022-10-04T07:08:30;5.93;;;3.65;;
23561;SDS011;11959;49.418;8.728;2022-10-04T07:11:19;5.68;;;3.45;;
23561;SDS011;11959;49.418;8.728;2022-10-04T07:13:52;8.07;;;3.72;;
23561;SDS011;11959;49.418;8.728;2022-10-04T07:16:37;7.28;;;4.32;;
23561;SDS011;11959;49.418;8.728;2022-10-04T07:22:32;8.70;;;4.20;;
23561;SDS011;11959;49.418;8.728;2022-10-04T07:27:57;5.75;;;3.95;;
23561;SDS011;11959;49.418;8.728;2022-10-04T07:30:47;7.75;;;4.00;;
23561;SDS011;11959;49.418;8.728;2022-10-04T07:33:22;5.60;;;3.85;;
23561;SDS011;11959;49.418;8.728;2022-10-04T07:36:14;5.82;;;3.95;;
23561;SDS011;11959;49.418;8.728;2022-10-04T07:38:44;7.60;;;3.80;;
23561;SDS011;11959;49.418;8.728;2022-10-04T07:41:31;8.35;;;3.95;;
23561;SDS011;11959;49.418;8.728;2022-10-04T07:44:14;8.00;;;4.03;;
23561;SDS011;11959;49.418;8.728;2022-10-04T07:49:26;5.38;;;3.60;;
23561;SDS011;11959;49.418;8.728;2022-10-04T07:57:00;4.72;;;3.33;;
23561;SDS011;11959;49.418;8.728;2022-10-04T08:05:42;10.32;;;4.50;;
23561;SDS011;11959;49.418;8.728;2022-10-04T08:19:41;7.53;;;3.40;;
23561;SDS011;11959;49.418;8.728;2022-10-04T08:28:02;6.03;;;3.08;;
23561;SDS011;11959;49.418;8.728;2022-10-04T08:31:06;5.20;;;3.10;;
23561;SDS011;11959;49.418;8.728;2022-10-04T08:34:39;7.60;;;3.08;;
23561;SDS011;11959;49.418;8.728;2022-10-04T08:37:12;7.88;;;2.85;;
23561;SDS011;11959;49.418;8.728;2022-10-04T08:39:48;6.10;;;3.22;;
23561;SDS011;11959;49.418;8.728;2022-10-04T08:56:37;5.35;;;2.80;;
23561;SDS011;11959;49.418;8.728;2022-10-04T09:10:12;9.80;;;3.45;;
23561;SDS011;11959;49.418;8.728;2022-10-04T09:18:37;6.90;;;2.92;;
23561;SDS011;11959;49.418;8.728;2022-10-04T09:21:10;7.97;;;2.90;;
23561;SDS011;11959;49.418;8.728;2022-10-04T09:43:33;4.88;;;2.47;;
23561;SDS011;11959;49.418;8.728;2022-10-04T09:46:34;6.65;;;2.80;;
23561;SDS011;11959;49.418;8.728;2022-10-04T09:49:46;6.18;;;2.50;;
23561;SDS011;11959;49.418;8.728;2022-10-04T09:55:32;4.35;;;2.53;;
23561;SDS011;11959;49.418;8.728;2022-10-04T10:04:27;6.35;;;2.50;;
23561;SDS011;11959;49.418;8.728;2022-10-04T10:21:54;5.40;;;2.67;;
23561;SDS011;11959;49.418;8.728;2022-10-04T10:32:52;4.68;;;2.70;;
23561;SDS011;11959;49.418;8.728;2022-10-04T10:40:48;7.40;;;2.85;;
23561;SDS011;11959;49.418;8.728;2022-10-04T11:00:30;6.35;;;2.65;;
23561;SDS011;11959;49.418;8.728;2022-10-04T11:26:14;7.97;;;2.97;;
23561;SDS011;11959;49.418;8.728;2022-10-04T11:37:54;3.50;;;2.25;;
23561;SDS011;11959;49.418;8.728;2022-10-04T11:43:09;4.97;;;2.58;;
23561;SDS011;11959;49.418;8.728;2022-10-04T11:57:35;4.63;;;2.17;;
23561;SDS011;11959;49.418;8.728;2022-10-04T12:00:21;4.90;;;2.30;;
23561;SDS011;11959;49.418;8.728;2022-10-04T12:14:30;4.80;;;2.65;;
23561;SDS011;11959;49.418;8.728;2022-10-04T12:43:44;4.57;;;2.20;;
23561;SDS011;11959;49.418;8.728;2022-10-04T12:49:14;5.32;;;2.30;;
23561;SDS011;11959;49.418;8.728;2022-10-04T12:52:17;4.00;;;2.40;;
23561;SDS011;11959;49.418;8.728;2022-10-04T12:55:08;4.70;;;2.35;;
23561;SDS011;11959;49.418;8.728;2022-10-04T12:57:56;5.10;;;2.20;;
23561;SDS011;11959;49.418;8.728;2022-10-04T13:00:28;5.38;;;2.30;;
23561;SDS011;11959;49.418;8.728;2022-10-04T13:09:07;3.95;;;2.25;;
23561;SDS011;11959;49.418;8.728;2022-10-04T13:20:30;4.45;;;2.22;;
23561;SDS011;11959;49.418;8.728;2022-10-04T13:26:15;6.20;;;2.60;;
23561;SDS011;11959;49.418;8.728;2022-10-04T13:37:04;4.82;;;2.55;;
23561;SDS011;11959;49.418;8.728;2022-10-04T13:56:55;4.82;;;2.35;;
23561;SDS011;11959;49.418;8.728;2022-10-04T13:59:45;3.78;;;2.03;;
23561;SDS011;11959;49.418;8.728;2022-10-04T14:02:28;3.00;;;2.05;;
23561;SDS011;11959;49.418;8.728;2022-10-04T14:08:13;4.80;;;2.22;;
23561;SDS011;11959;49.418;8.728;2022-10-04T14:33:38;7.95;;;2.35;;
23561;SDS011;11959;49.418;8.728;2022-10-04T14:36:30;5.93;;;2.53;;
23561;SDS011;11959;49.418;8.728;2022-10-04T15:01:25;3.90;;;2.22;;
23561;SDS011;11959;49.418;8.728;2022-10-04T15:06:53;6.85;;;2.53;;
23561;SDS011;11959;49.418;8.728;2022-10-04T15:23:05;20.83;;;11.57;;
23561;SDS011;11959;49.418;8.728;2022-10-04T15:25:46;17.42;;;12.00;;
23561;SDS011;11959;49.418;8.728;2022-10-04T15:28:27;10.07;;;6.53;;
23561;SDS011;11959;49.418;8.728;2022-10-04T15:31:12;6.70;;;3.63;;
23561;SDS011;11959;49.418;8.728;2022-10-04T15:53:11;5.85;;;2.97;;
23561;SDS011;11959;49.418;8.728;2022-10-04T15:55:47;4.35;;;2.70;;
23561;SDS011;11959;49.418;8.728;2022-10-04T16:18:06;7.10;;;2.33;;
23561;SDS011;11959;49.418;8.728;2022-10-04T16:23:28;6.55;;;4.50;;
23561;SDS011;11959;49.418;8.728;2022-10-04T16:25:57;5.97;;;4.50;;
23561;SDS011;11959;49.418;8.728;2022-10-04T16:33:50;5.55;;;2.60;;
23561;SDS011;11959;49.418;8.728;2022-10-04T16:36:56;4.97;;;2.55;;
23561;SDS011;11959;49.418;8.728;2022-10-04T16:50:11;7.57;;;2.60;;
23561;SDS011;11959;49.418;8.728;2022-10-04T16:52:41;6.57;;;2.92;;
23561;SDS011;11959;49.418;8.728;2022-10-04T17:07:12;5.70;;;2.72;;
23561;SDS011;11959;49.418;8.728;2022-10-04T17:15:04;5.22;;;2.78;;
23561;SDS011;11959;49.418;8.728;2022-10-04T17:23:04;5.93;;;3.03;;
23561;SDS011;11959;49.418;8.728;2022-10-04T17:28:34;6.93;;;3.20;;
23561;SDS011;11959;49.418;8.728;2022-10-04T17:31:09;8.60;;;3.42;;
23561;SDS011;11959;49.418;8.728;2022-10-04T17:33:49;5.75;;;3.13;;
23561;SDS011;11959;49.418;8.728;2022-10-04T17:36:38;6.93;;;3.30;;
23561;SDS011;11959;49.418;8.728;2022-10-04T17:47:32;7.07;;;2.85;;
23561;SDS011;11959;49.418;8.728;2022-10-04T17:53:40;5.93;;;2.70;;
23561;SDS011;11959;49.418;8.728;2022-10-04T17:56:31;4.82;;;3.03;;
23561;SDS011;11959;49.418;8.728;2022-10-04T17:59:07;4.50;;;2.70;;
23561;SDS011;11959;49.418;8.728;2022-10-04T18:01:45;6.07;;;2.63;;
23561;SDS011;11959;49.418;8.728;2022-10-04T18:04:23;4.88;;;2.88;;
23561;SDS011;11959;49.418;8.728;2022-10-04T18:07:08;3.40;;;2.55;;
23561;SDS011;11959;49.418;8.728;2022-10-04T18:09:45;5.68;;;2.70;;
23561;SDS011;11959;49.418;8.728;2022-10-04T18:12:31;5.57;;;3.33;;
23561;SDS011;11959;49.418;8.728;2022-10-04T18:17:47;4.90;;;3.10;;
23561;SDS011;11959;49.418;8.728;2022-10-04T18:20:30;6.28;;;3.83;;
23561;SDS011;11959;49.418;8.728;2022-10-04T18:23:17;5.68;;;3.20;;
23561;SDS011;11959;49.418;8.728;2022-10-04T18:26:13;4.72;;;3.40;;
23561;SDS011;11959;49.418;8.728;2022-10-04T18:28:44;7.03;;;3.40;;
23561;SDS011;11959;49.418;8.728;2022-10-04T18:31:30;4.93;;;3.10;;
23561;SDS011;11959;49.418;8.728;2022-10-04T18:34:00;5.22;;;2.70;;
23561;SDS011;11959;49.418;8.728;2022-10-04T18:39:46;8.07;;;3.20;;
23561;SDS011;11959;49.418;8.728;2022-10-04T18:42:17;4.97;;;2.75;;
23561;SDS011;11959;49.418;8.728;2022-10-04T18:44:59;4.50;;;2.78;;
23561;SDS011;11959;49.418;8.728;2022-10-04T18:47:33;6.60;;;3.28;;
23561;SDS011;11959;49.418;8.728;2022-10-04T18:50:13;7.53;;;4.70;;
23561;SDS011;11959;49.418;8.728;2022-10-04T18:55:51;9.18;;;4.60;;
23561;SDS011;11959;49.418;8.728;2022-10-04T19:04:54;7.50;;;3.85;;
23561;SDS011;11959;49.418;8.728;2022-10-04T19:07:25;5.10;;;3.42;;
23561;SDS011;11959;49.418;8.728;2022-10-04T19:15:32;10.18;;;6.60;;
23561;SDS011;11959;49.418;8.728;2022-10-04T19:18:12;9.00;;;5.00;;
23561;SDS011;11959;49.418;8.728;2022-10-04T19:26:58;10.65;;;6.43;;
23561;SDS011;11959;49.418;8.728;2022-10-04T19:35:00;11.43;;;5.40;;
23561;SDS011;11959;49.418;8.728;2022-10-04T19:37:31;8.73;;;5.38;;
23561;SDS011;11959;49.418;8.728;2022-10-04T19:48:48;6.13;;;4.20;;
23561;SDS011;11959;49.418;8.728;2022-10-04T19:51:33;9.82;;;5.85;;
23561;SDS011;11959;49.418;8.728;2022-10-04T19:54:15;10.20;;;5.40;;
23561;SDS011;11959;49.418;8.728;2022-10-04T19:56:46;11.13;;;5.18;;
23561;SDS011;11959;49.418;8.728;2022-10-04T19:59:14;7.35;;;4.78;;
23561;SDS011;11959;49.418;8.728;2022-10-04T20:01:43;6.85;;;4.53;;
23561;SDS011;11959;49.418;8.728;2022-10-04T20:04:13;6.05;;;4.53;;
23561;SDS011;11959;49.418;8.728;2022-10-04T20:07:00;6.80;;;4.35;;
23561;SDS011;11959;49.418;8.728;2022-10-04T20:12:01;8.90;;;4.53;;
23561;SDS011;11959;49.418;8.728;2022-10-04T20:21:51;8.23;;;4.53;;
23561;SDS011;11959;49.418;8.728;2022-10-04T20:33:01;6.97;;;4.25;;
23561;SDS011;11959;49.418;8.728;2022-10-04T20:35:12;8.73;;;4.20;;
23561;SDS011;11959;49.418;8.728;2022-10-04T20:45:42;8.88;;;4.18;;
23561;SDS011;11959;49.418;8.728;2022-10-04T20:48:20;5.97;;;3.72;;
23561;SDS011;11959;49.418;8.728;2022-10-04T20:50:57;8.70;;;4.72;;
23561;SDS011;11959;49.418;8.728;2022-10-04T20:53:32;5.82;;;4.38;;
23561;SDS011;11959;49.418;8.728;2022-10-04T20:56:09;6.57;;;4.82;;
23561;SDS011;11959;49.418;8.728;2022-10-04T20:58:52;7.97;;;4.50;;
23561;SDS011;11959;49.418;8.728;2022-10-04T21:01:20;8.70;;;4.60;;
23561;SDS011;11959;49.418;8.728;2022-10-04T21:04:17;7.75;;;5.45;;
23561;SDS011;11959;49.418;8.728;2022-10-04T21:06:57;8.48;;;5.10;;
23561;SDS011;11959;49.418;8.728;2022-10-04T21:09:24;8.32;;;5.40;;
23561;SDS011;11959;49.418;8.728;2022-10-04T21:11:52;8.65;;;5.10;;
23561;SDS011;11959;49.418;8.728;2022-10-04T21:14:32;10.93;;;5.18;;
23561;SDS011;11959;49.418;8.728;2022-10-04T21:17:02;10.55;;;5.63;;
23561;SDS011;11959;49.418;8.728;2022-10-04T21:27:25;11.07;;;5.78;;
23561;SDS011;11959;49.418;8.728;2022-10-04T21:29:51;9.00;;;5.75;;
23561;SDS011;11959;49.418;8.728;2022-10-04T21:32:17;8.38;;;5.40;;
23561;SDS011;11959;49.418;8.728;2022-10-04T21:34:44;8.05;;;5.55;;
23561;SDS011;11959;49.418;8.728;2022-10-04T21:37:09;8.25;;;5.55;;
23561;SDS011;11959;49.418;8.728;2022-10-04T21:39:35;11.85;;;4.90;;
23561;SDS011;11959;49.418;8.728;2022-10-04T21:42:00;9.02;;;5.30;;
23561;SDS011;11959;49.418;8.728;2022-10-04T21:44:26;11.13;;;5.45;;
23561;SDS011;11959;49.418;8.728;2022-10-04T21:46:52;10.40;;;5.22;;
23561;SDS011;11959;49.418;8.728;2022-10-04T21:49:17;10.05;;;5.80;;
23561;SDS011;11959;49.418;8.728;2022-10-04T21:51:43;9.23;;;5.05;;
23561;SDS011;11959;49.418;8.728;2022-10-04T21:54:10;8.38;;;5.30;;
23561;SDS011;11959;49.418;8.728;2022-10-04T21:56:36;11.10;;;6.25;;
23561;SDS011;11959;49.418;8.728;2022-10-04T21:59:01;8.65;;;5.30;;
23561;SDS011;11959;49.418;8.728;2022-10-04T22:01:27;9.35;;;5.60;;
23561;SDS011;11959;49.418;8.728;2022-10-04T22:03:53;8.52;;;5.50;;
23561;SDS011;11959;49.418;8.728;2022-10-04T22:06:18;9.90;;;5.53;;
23561;SDS011;11959;49.418;8.728;2022-10-04T22:08:44;6.75;;;4.78;;
23561;SDS011;11959;49.418;8.728;2022-10-04T22:11:10;8.77;;;5.43;;
23561;SDS011;11959;49.418;8.728;2022-10-04T22:13:36;9.23;;;5.53;;
23561;SDS011;11959;49.418;8.728;2022-10-04T22:16:02;10.57;;;5.38;;
23561;SDS011;11959;49.418;8.728;2022-10-04T22:18:28;9.80;;;5.78;;
23561;SDS011;11959;49.418;8.728;2022-10-04T22:20:55;9.73;;;5.70;;
23561;SDS011;11959;49.418;8.728;2022-10-04T22:23:22;7.95;;;5.43;;
23561;SDS011;11959;49.418;8.728;2022-10-04T22:25:50;7.63;;;5.45;;
23561;SDS011;11959;49.418;8.728;2022-10-04T22:28:20;7.50;;;5.55;;
23561;SDS011;11959;49.418;8.728;2022-10-04T22:30:46;7.53;;;5.00;;
23561;SDS011;11959;49.418;8.728;2022-10-04T22:41:38;8.85;;;4.88;;
23561;SDS011;11959;49.418;8.728;2022-10-04T22:46:38;11.88;;;5.68;;
23561;SDS011;11959;49.418;8.728;2022-10-04T22:49:14;8.85;;;5.25;;
23561;SDS011;11959;49.418;8.728;2022-10-04T22:51:42;6.75;;;5.53;;
23561;SDS011;11959;49.418;8.728;2022-10-04T22:54:09;9.68;;;5.57;;
23561;SDS011;11959;49.418;8.728;2022-10-04T22:56:40;11.13;;;5.65;;
23561;SDS011;11959;49.418;8.728;2022-10-04T22:59:09;8.73;;;5.07;;
23561;SDS011;11959;49.418;8.728;2022-10-04T23:01:37;7.63;;;5.10;;
23561;SDS011;11959;49.418;8.728;2022-10-04T23:04:03;8.13;;;4.90;;
23561;SDS011;11959;49.418;8.728;2022-10-04T23:06:48;8.15;;;5.32;;
23561;SDS011;11959;49.418;8.728;2022-10-04T23:09:14;8.32;;;4.93;;
23561;SDS011;11959;49.418;8.728;2022-10-04T23:11:41;8.43;;;5.13;;
23561;SDS011;11959;49.418;8.728;2022-10-04T23:14:06;10.07;;;5.70;;
23561;SDS011;11959;49.418;8.728;2022-10-04T23:16:32;9.65;;;5.20;;
23561;SDS011;11959;49.418;8.728;2022-10-04T23:19:04;7.68;;;4.93;;
23561;SDS011;11959;49.418;8.728;2022-10-04T23:21:36;7.47;;;4.75;;
23561;SDS011;11959;49.418;8.728;2022-10-04T23:24:21;7.30;;;4.80;;
23561;SDS011;11959;49.418;8.728;2022-10-04T23:26:54;6.97;;;5.10;;
23561;SDS011;11959;49.418;8.728;2022-10-04T23:31:50;7.53;;;4.80;;
23561;SDS011;11959;49.418;8.728;2022-10-04T23:36:48;7.90;;;5.00;;
23561;SDS011;11959;49.418;8.728;2022-10-04T23:39:22;10.63;;;4.88;;
23561;SDS011;11959;49.418;8.728;2022-10-04T23:41:51;7.03;;;4.78;;
23561;SDS011;11959;49.418;8.728;2022-10-04T23:44:18;7.47;;;4.75;;
23561;SDS011;11959;49.418;8.728;2022-10-04T23:46:45;6.88;;;4.88;;
23561;SDS011;11959;49.418;8.728;2022-10-04T23:49:15;7.20;;;4.63;;
23561;SDS011;11959;49.418;8.728;2022-10-04T23:51:43;7.05;;;5.00;;
23561;SDS011;11959;49.418;8.728;2022-10-04T23:54:13;6.72;;;4.63;;
23561;SDS011;11959;49.418;8.728;2022-10-04T23:56:42;8.07;;;5.00;;
23561;SDS011;11959;49.418;8.728;2022-10-04T23:59:12;6.45;;;4.82;;
